createdAt,value
2022-09-11T00:01:14.388Z,99.90
2022-09-11T00:03:42.906Z,99.90
2022-09-11T00:06:27.496Z,99.90
2022-09-11T00:09:00.267Z,99.90
2022-09-11T00:11:33.002Z,99.90
2022-09-11T00:13:59.830Z,99.90
2022-09-11T00:16:31.359Z,99.90
2022-09-11T00:19:00.676Z,99.90
2022-09-11T00:21:28.173Z,99.90
2022-09-11T00:23:55.123Z,99.90
2022-09-11T00:26:22.112Z,99.90
2022-09-11T00:28:50.589Z,99.90
2022-09-11T00:31:19.584Z,99.90
2022-09-11T00:33:46.620Z,99.90
2022-09-11T00:36:18.997Z,99.90
2022-09-11T00:38:46.303Z,99.90
2022-09-11T00:41:28.162Z,99.90
2022-09-11T00:44:18.677Z,99.90
2022-09-11T00:46:58.238Z,99.90
2022-09-11T00:49:40.485Z,99.90
2022-09-11T00:52:18.197Z,99.90
2022-09-11T00:54:49.935Z,99.90
2022-09-11T00:57:20.828Z,99.90
2022-09-11T00:59:49.282Z,99.90
2022-09-11T01:02:19.275Z,99.90
2022-09-11T01:04:45.977Z,99.90
2022-09-11T01:07:15.514Z,99.90
2022-09-11T01:09:42.924Z,99.90
2022-09-11T01:12:18.867Z,99.90
2022-09-11T01:15:03.738Z,99.90
2022-09-11T01:17:39.277Z,99.90
2022-09-11T01:20:36.959Z,99.90
2022-09-11T01:23:12.229Z,99.90
2022-09-11T01:26:09.210Z,99.90
2022-09-11T01:28:45.474Z,99.90
2022-09-11T01:31:16.266Z,99.90
2022-09-11T01:34:06.593Z,99.90
2022-09-11T01:36:39.073Z,99.90
2022-09-11T01:39:05.909Z,99.90
2022-09-11T01:41:54.357Z,99.90
2022-09-11T01:44:38.462Z,99.90
2022-09-11T01:47:10.580Z,99.90
2022-09-11T01:50:01.520Z,99.90
2022-09-11T01:52:34.128Z,99.90
2022-09-11T01:55:24.056Z,99.90
2022-09-11T01:58:03.120Z,99.90
2022-09-11T02:00:35.045Z,99.90
2022-09-11T02:03:06.238Z,99.90
2022-09-11T02:05:49.095Z,99.90
2022-09-11T02:08:24.418Z,99.90
2022-09-11T02:10:56.271Z,99.90
2022-09-11T02:13:30.895Z,99.90
2022-09-11T02:16:12.012Z,99.90
2022-09-11T02:18:38.641Z,99.90
2022-09-11T02:21:05.338Z,99.90
2022-09-11T02:23:32.308Z,99.90
2022-09-11T02:25:59.025Z,99.90
2022-09-11T02:28:25.851Z,99.90
2022-09-11T02:30:53.136Z,99.90
2022-09-11T02:33:30.917Z,99.90
2022-09-11T02:36:22.362Z,99.90
2022-09-11T02:39:16.619Z,99.90
2022-09-11T02:42:02.485Z,99.90
2022-09-11T02:44:38.715Z,99.90
2022-09-11T02:47:20.203Z,99.90
2022-09-11T02:49:57.689Z,99.90
2022-09-11T02:52:42.515Z,99.90
2022-09-11T02:55:38.748Z,99.90
2022-09-11T02:58:44.266Z,99.90
2022-09-11T03:01:11.836Z,99.90
2022-09-11T03:03:40.482Z,99.90
2022-09-11T03:06:13.647Z,99.90
2022-09-11T03:08:41.031Z,99.90
2022-09-11T03:11:10.869Z,99.90
2022-09-11T03:13:38.174Z,99.90
2022-09-11T03:16:05.538Z,99.90
2022-09-11T03:18:33.197Z,99.90
2022-09-11T03:21:01.133Z,99.90
2022-09-11T03:23:28.264Z,99.90
2022-09-11T03:25:55.557Z,99.90
2022-09-11T03:28:23.262Z,99.90
2022-09-11T03:30:50.579Z,99.90
2022-09-11T03:33:17.279Z,99.90
2022-09-11T03:35:44.652Z,99.90
2022-09-11T03:38:12.140Z,99.90
2022-09-11T03:40:39.217Z,99.90
2022-09-11T03:43:05.860Z,99.90
2022-09-11T03:45:32.560Z,99.90
2022-09-11T03:47:59.285Z,99.90
2022-09-11T03:50:26.568Z,99.90
2022-09-11T03:52:53.232Z,99.90
2022-09-11T03:55:19.956Z,99.90
2022-09-11T03:57:46.620Z,99.90
2022-09-11T04:00:13.430Z,99.90
2022-09-11T04:02:40.079Z,99.90
2022-09-11T04:05:07.731Z,99.90
2022-09-11T04:07:34.806Z,99.90
2022-09-11T04:10:01.458Z,99.90
2022-09-11T04:12:29.011Z,99.90
2022-09-11T04:14:57.019Z,99.90
2022-09-11T04:17:24.429Z,99.90
2022-09-11T04:19:51.145Z,99.90
2022-09-11T04:22:17.809Z,99.90
2022-09-11T04:24:44.542Z,99.90
2022-09-11T04:27:12.452Z,99.90
2022-09-11T04:29:39.064Z,99.90
2022-09-11T04:32:05.824Z,99.90
2022-09-11T04:34:32.508Z,99.90
2022-09-11T04:36:59.183Z,99.90
2022-09-11T04:39:25.899Z,99.90
2022-09-11T04:41:52.616Z,99.90
2022-09-11T04:44:20.726Z,99.90
2022-09-11T04:46:47.739Z,99.90
2022-09-11T04:49:14.794Z,99.90
2022-09-11T04:51:41.751Z,99.90
2022-09-11T04:54:12.734Z,99.90
2022-09-11T04:56:39.462Z,99.90
2022-09-11T04:59:13.236Z,99.90
2022-09-11T05:01:40.387Z,99.90
2022-09-11T05:04:08.479Z,99.90
2022-09-11T05:06:37.888Z,99.90
2022-09-11T05:09:06.920Z,99.90
2022-09-11T05:11:34.234Z,99.90
2022-09-11T05:14:00.989Z,99.90
2022-09-11T05:16:29.917Z,99.90
2022-09-11T05:18:57.155Z,99.90
2022-09-11T05:21:25.509Z,99.90
2022-09-11T05:23:54.586Z,99.90
2022-09-11T05:26:23.557Z,99.90
2022-09-11T05:29:04.849Z,99.90
2022-09-11T05:31:34.194Z,99.90
2022-09-11T05:34:01.169Z,99.90
2022-09-11T05:36:28.479Z,99.90
2022-09-11T05:38:55.498Z,99.90
2022-09-11T05:41:22.392Z,99.90
2022-09-11T05:43:49.338Z,99.90
2022-09-11T05:46:17.865Z,99.90
2022-09-11T05:48:45.091Z,99.90
2022-09-11T05:51:20.303Z,99.90
2022-09-11T05:53:47.947Z,99.90
2022-09-11T05:56:17.080Z,99.90
2022-09-11T05:58:46.083Z,99.90
2022-09-11T06:01:18.759Z,99.90
2022-09-11T06:03:49.388Z,99.90
2022-09-11T06:06:18.531Z,99.90
2022-09-11T06:08:47.330Z,99.90
2022-09-11T06:11:17.599Z,99.90
2022-09-11T06:13:46.502Z,99.90
2022-09-11T06:16:21.130Z,99.90
2022-09-11T06:18:49.538Z,99.90
2022-09-11T06:21:19.860Z,99.90
2022-09-11T06:23:48.063Z,99.90
2022-09-11T06:26:17.810Z,99.90
2022-09-11T06:28:44.594Z,99.90
2022-09-11T06:31:17.089Z,99.90
2022-09-11T06:33:44.797Z,99.90
2022-09-11T06:36:14.414Z,99.90
2022-09-11T06:38:41.574Z,99.90
2022-09-11T06:41:11.799Z,99.90
2022-09-11T06:43:38.813Z,99.90
2022-09-11T06:46:07.605Z,99.90
2022-09-11T06:48:34.339Z,99.90
2022-09-11T06:51:05.521Z,99.90
2022-09-11T06:53:32.233Z,99.90
2022-09-11T06:56:04.059Z,99.90
2022-09-11T06:58:31.525Z,99.90
2022-09-11T07:01:12.590Z,99.90
2022-09-11T07:03:46.244Z,99.90
2022-09-11T07:06:15.062Z,99.90
2022-09-11T07:08:41.713Z,99.90
2022-09-11T07:11:11.331Z,99.90
2022-09-11T07:13:39.227Z,99.90
2022-09-11T07:16:08.918Z,99.90
2022-09-11T07:18:37.246Z,99.90
2022-09-11T07:21:12.156Z,99.90
2022-09-11T07:23:40.458Z,99.90
2022-09-11T07:26:10.819Z,99.90
2022-09-11T07:28:38.499Z,99.90
2022-09-11T07:31:05.312Z,99.90
2022-09-11T07:33:32.103Z,99.90
2022-09-11T07:35:58.853Z,99.90
2022-09-11T07:38:25.548Z,99.90
2022-09-11T07:40:54.542Z,99.90
2022-09-11T07:43:21.396Z,99.90
2022-09-11T07:45:50.554Z,99.90
2022-09-11T07:48:17.408Z,99.90
2022-09-11T07:50:54.380Z,99.90
2022-09-11T07:53:21.016Z,99.90
2022-09-11T07:55:47.671Z,99.90
2022-09-11T07:58:14.367Z,99.90
2022-09-11T08:00:40.986Z,99.90
2022-09-11T08:03:07.759Z,99.90
2022-09-11T08:05:34.423Z,99.90
2022-09-11T08:08:01.189Z,99.90
2022-09-11T08:10:28.338Z,99.90
2022-09-11T08:12:59.390Z,99.90
2022-09-11T08:15:27.129Z,99.90
2022-09-11T08:17:54.322Z,99.90
2022-09-11T08:20:21.643Z,99.90
2022-09-11T08:22:48.309Z,99.90
2022-09-11T08:25:15.155Z,99.90
2022-09-11T08:27:41.849Z,99.90
2022-09-11T08:30:09.485Z,99.90
2022-09-11T08:32:36.198Z,99.90
2022-09-11T08:35:02.855Z,99.90
2022-09-11T08:37:29.596Z,99.90
2022-09-11T08:39:56.986Z,99.90
2022-09-11T08:42:27.073Z,99.90
2022-09-11T08:44:58.795Z,99.90
2022-09-11T08:47:28.925Z,99.90
2022-09-11T08:50:03.659Z,99.90
2022-09-11T08:52:32.934Z,99.90
2022-09-11T08:54:59.792Z,99.90
2022-09-11T08:58:01.141Z,99.90
2022-09-11T09:00:42.036Z,99.90
2022-09-11T09:03:30.423Z,99.90
2022-09-11T09:06:05.074Z,99.90
2022-09-11T09:09:00.426Z,99.90
2022-09-11T09:11:33.033Z,99.90
2022-09-11T09:14:11.859Z,99.90
2022-09-11T09:16:47.360Z,99.90
2022-09-11T09:19:17.680Z,99.90
2022-09-11T09:22:07.814Z,99.90
2022-09-11T09:24:42.537Z,99.90
2022-09-11T09:27:24.804Z,99.90
2022-09-11T09:29:55.799Z,99.90
2022-09-11T09:32:31.230Z,99.90
2022-09-11T09:35:03.995Z,99.90
2022-09-11T09:37:31.019Z,99.90
2022-09-11T09:40:00.512Z,99.90
2022-09-11T09:43:08.604Z,99.90
2022-09-11T09:45:42.448Z,99.90
2022-09-11T09:48:11.720Z,99.90
2022-09-11T09:50:41.483Z,99.90
2022-09-11T09:53:32.459Z,99.70
2022-09-11T09:56:00.941Z,99.90
2022-09-11T09:58:34.390Z,99.90
2022-09-11T10:01:01.227Z,99.50
2022-09-11T10:03:28.038Z,99.30
2022-09-11T10:05:56.262Z,99.50
2022-09-11T10:08:32.005Z,99.00
2022-09-11T10:11:04.397Z,98.90
2022-09-11T10:13:40.038Z,98.40
2022-09-11T10:16:20.844Z,97.80
2022-09-11T10:18:47.653Z,97.30
2022-09-11T10:21:22.854Z,97.00
2022-09-11T10:23:54.752Z,97.00
2022-09-11T10:26:46.214Z,97.00
2022-09-11T10:29:30.066Z,96.70
2022-09-11T10:31:59.342Z,97.30
2022-09-11T10:34:27.902Z,97.70
2022-09-11T10:37:15.249Z,97.90
2022-09-11T10:39:46.011Z,97.80
2022-09-11T10:42:30.302Z,98.10
2022-09-11T10:45:10.339Z,98.20
2022-09-11T10:47:37.545Z,98.40
2022-09-11T10:50:20.239Z,98.40
2022-09-11T10:52:57.914Z,98.70
2022-09-11T10:55:29.566Z,98.50
2022-09-11T10:58:05.359Z,98.20
2022-09-11T11:00:32.679Z,98.10
2022-09-11T11:03:04.165Z,98.10
2022-09-11T11:05:36.874Z,97.80
2022-09-11T11:08:15.738Z,97.60
2022-09-11T11:10:59.090Z,97.10
2022-09-11T11:13:40.885Z,96.40
2022-09-11T11:16:45.390Z,95.70
2022-09-11T11:19:27.633Z,94.80
2022-09-11T11:22:16.468Z,94.70
2022-09-11T11:24:57.928Z,94.20
2022-09-11T11:27:57.954Z,94.30
2022-09-11T11:30:33.291Z,93.50
2022-09-11T11:33:14.786Z,93.00
2022-09-11T11:36:00.156Z,92.40
2022-09-11T11:38:39.391Z,92.00
2022-09-11T11:41:23.703Z,91.30
2022-09-11T11:43:53.159Z,92.00
2022-09-11T11:46:25.398Z,92.40
2022-09-11T11:49:03.041Z,92.50
2022-09-11T11:51:47.509Z,92.30
2022-09-11T11:54:20.337Z,91.40
2022-09-11T11:56:51.997Z,91.70
2022-09-11T11:59:36.849Z,91.00
2022-09-11T12:02:16.141Z,91.30
2022-09-11T12:05:00.097Z,90.50
2022-09-11T12:07:32.769Z,89.90
2022-09-11T12:10:05.046Z,89.40
2022-09-11T12:12:45.371Z,88.10
2022-09-11T12:15:21.394Z,87.50
2022-09-11T12:18:00.296Z,88.00
2022-09-11T12:20:40.766Z,88.70
2022-09-11T12:23:29.938Z,88.00
2022-09-11T12:26:08.902Z,86.70
2022-09-11T12:28:35.828Z,87.10
2022-09-11T12:31:08.011Z,87.30
2022-09-11T12:33:44.242Z,86.50
2022-09-11T12:36:24.582Z,86.60
2022-09-11T12:39:01.957Z,87.40
2022-09-11T12:41:34.569Z,87.60
2022-09-11T12:44:03.423Z,87.40
2022-09-11T12:46:30.190Z,86.50
2022-09-11T12:49:21.587Z,87.60
2022-09-11T12:51:56.203Z,88.10
2022-09-11T12:54:46.429Z,88.50
2022-09-11T12:57:22.012Z,88.90
2022-09-11T12:59:55.937Z,89.10
2022-09-11T13:02:42.918Z,89.80
2022-09-11T13:05:39.910Z,90.40
2022-09-11T13:08:19.030Z,90.10
2022-09-11T13:10:46.974Z,90.30
2022-09-11T13:13:35.591Z,90.60
2022-09-11T13:16:19.320Z,90.90
2022-09-11T13:18:46.222Z,91.10
2022-09-11T13:21:17.302Z,91.30
2022-09-11T13:23:46.745Z,91.30
2022-09-11T13:26:21.767Z,91.40
2022-09-11T13:28:52.492Z,91.60
2022-09-11T13:31:26.501Z,91.60
2022-09-11T13:33:53.480Z,91.20
2022-09-11T13:36:24.625Z,91.70
2022-09-11T13:38:57.133Z,91.80
2022-09-11T13:41:29.784Z,91.90
2022-09-11T13:44:01.658Z,92.10
2022-09-11T13:46:32.374Z,92.20
2022-09-11T13:49:06.498Z,92.10
2022-09-11T13:51:34.847Z,91.80
2022-09-11T13:54:15.239Z,91.50
2022-09-11T13:57:03.044Z,91.30
2022-09-11T13:59:46.278Z,91.40
2022-09-11T14:02:34.807Z,91.20
2022-09-11T14:05:07.610Z,91.20
2022-09-11T14:07:42.898Z,91.30
2022-09-11T14:10:22.570Z,91.30
2022-09-11T14:13:03.104Z,91.40
2022-09-11T14:15:41.061Z,91.40
2022-09-11T14:18:23.909Z,91.70
2022-09-11T14:20:51.106Z,91.70
2022-09-11T14:23:24.162Z,91.20
2022-09-11T14:26:24.564Z,90.90
2022-09-11T14:28:59.762Z,90.20
2022-09-11T14:31:45.239Z,89.90
2022-09-11T14:34:17.885Z,89.50
2022-09-11T14:36:55.518Z,88.00
2022-09-11T14:39:29.802Z,87.00
2022-09-11T14:41:58.025Z,86.60
2022-09-11T14:44:26.264Z,85.90
2022-09-11T14:46:54.938Z,85.80
2022-09-11T14:49:23.244Z,85.20
2022-09-11T14:52:00.367Z,85.50
2022-09-11T14:54:31.970Z,85.50
2022-09-11T14:57:00.405Z,85.40
2022-09-11T14:59:30.191Z,84.90
2022-09-11T15:01:58.735Z,83.90
2022-09-11T15:04:25.632Z,84.70
2022-09-11T15:06:55.361Z,84.50
2022-09-11T15:09:23.428Z,83.70
2022-09-11T15:11:52.194Z,83.20
2022-09-11T15:14:38.570Z,83.70
2022-09-11T15:17:14.898Z,83.80
2022-09-11T15:19:41.619Z,84.40
2022-09-11T15:22:11.572Z,84.20
2022-09-11T15:24:38.230Z,84.90
2022-09-11T15:27:04.954Z,85.40
2022-09-11T15:29:32.176Z,85.50
2022-09-11T15:32:01.044Z,85.80
2022-09-11T15:34:31.665Z,85.70
2022-09-11T15:36:58.637Z,85.30
2022-09-11T15:39:25.985Z,85.00
2022-09-11T15:41:54.099Z,85.30
2022-09-11T15:44:22.950Z,85.60
2022-09-11T15:46:51.170Z,86.00
2022-09-11T15:49:22.888Z,87.30
2022-09-11T15:51:51.342Z,87.50
2022-09-11T15:54:19.154Z,87.50
2022-09-11T15:56:46.744Z,87.40
2022-09-11T15:59:15.311Z,86.80
2022-09-11T16:01:43.294Z,86.90
2022-09-11T16:04:12.638Z,86.80
2022-09-11T16:06:42.355Z,86.90
2022-09-11T16:09:24.169Z,86.90
2022-09-11T16:11:51.603Z,87.20
2022-09-11T16:14:19.815Z,86.90
2022-09-11T16:16:49.496Z,87.10
2022-09-11T16:19:17.531Z,87.10
2022-09-11T16:21:44.775Z,87.70
2022-09-11T16:24:12.197Z,87.90
2022-09-11T16:26:39.744Z,88.40
2022-09-11T16:29:12.369Z,88.60
2022-09-11T16:31:39.778Z,88.90
2022-09-11T16:34:07.248Z,89.90
2022-09-11T16:36:41.785Z,88.60
2022-09-11T16:39:11.510Z,88.80
2022-09-11T16:41:38.853Z,89.00
2022-09-11T16:44:07.773Z,89.50
2022-09-11T16:46:35.095Z,90.00
2022-09-11T16:49:02.311Z,90.30
2022-09-11T16:51:29.857Z,90.10
2022-09-11T16:53:57.078Z,90.30
2022-09-11T16:56:24.627Z,90.40
2022-09-11T16:58:51.983Z,90.40
2022-09-11T17:01:24.014Z,90.50
2022-09-11T17:03:52.628Z,90.50
2022-09-11T17:06:20.786Z,90.80
2022-09-11T17:08:50.654Z,90.80
2022-09-11T17:11:20.808Z,90.80
2022-09-11T17:13:49.091Z,90.70
2022-09-11T17:16:23.987Z,91.00
2022-09-11T17:18:56.472Z,91.00
2022-09-11T17:21:24.464Z,91.20
2022-09-11T17:23:54.009Z,91.30
2022-09-11T17:26:21.624Z,91.40
2022-09-11T17:28:49.828Z,91.60
2022-09-11T17:31:19.311Z,91.90
2022-09-11T17:33:47.674Z,92.00
2022-09-11T17:36:17.204Z,92.10
2022-09-11T17:38:46.030Z,92.30
2022-09-11T17:41:13.028Z,92.30
2022-09-11T17:43:40.623Z,92.60
2022-09-11T17:46:15.062Z,93.00
2022-09-11T17:48:43.622Z,93.20
2022-09-11T17:51:14.262Z,93.30
2022-09-11T17:53:47.193Z,93.40
2022-09-11T17:56:16.654Z,93.70
2022-09-11T17:58:45.083Z,93.90
2022-09-11T18:01:16.835Z,94.10
2022-09-11T18:03:49.231Z,94.30
2022-09-11T18:06:34.530Z,94.40
2022-09-11T18:09:06.031Z,94.40
2022-09-11T18:11:32.691Z,94.20
2022-09-11T18:14:00.298Z,94.50
2022-09-11T18:16:27.524Z,94.70
2022-09-11T18:18:55.583Z,95.10
2022-09-11T18:21:22.494Z,95.30
2022-09-11T18:23:49.834Z,95.30
2022-09-11T18:26:23.597Z,95.30
2022-09-11T18:28:50.745Z,94.90
2022-09-11T18:31:17.708Z,94.40
2022-09-11T18:33:44.757Z,94.30
2022-09-11T18:36:13.429Z,94.80
2022-09-11T18:38:40.477Z,95.10
2022-09-11T18:41:07.255Z,95.40
2022-09-11T18:43:34.112Z,95.50
2022-09-11T18:46:03.162Z,95.50
2022-09-11T18:48:29.959Z,95.50
2022-09-11T18:51:00.035Z,95.30
2022-09-11T18:53:27.060Z,95.10
2022-09-11T18:56:03.772Z,94.90
2022-09-11T18:58:36.034Z,94.90
2022-09-11T19:01:11.708Z,94.80
2022-09-11T19:03:42.228Z,95.20
2022-09-11T19:06:20.141Z,95.40
2022-09-11T19:08:48.231Z,95.60
2022-09-11T19:11:17.929Z,95.70
2022-09-11T19:13:45.832Z,95.70
2022-09-11T19:16:14.556Z,95.70
2022-09-11T19:18:42.063Z,95.70
2022-09-11T19:21:15.010Z,95.80
2022-09-11T19:23:44.819Z,95.90
2022-09-11T19:26:17.912Z,96.30
2022-09-11T19:28:45.985Z,96.20
2022-09-11T19:31:14.869Z,96.30
2022-09-11T19:33:42.895Z,96.30
2022-09-11T19:36:15.171Z,96.40
2022-09-11T19:38:44.267Z,96.70
2022-09-11T19:41:13.916Z,96.70
2022-09-11T19:43:42.184Z,96.90
2022-09-11T19:46:15.105Z,96.80
2022-09-11T19:48:43.346Z,96.70
2022-09-11T19:51:11.497Z,96.80
2022-09-11T19:53:39.233Z,97.00
2022-09-11T19:56:06.742Z,97.00
2022-09-11T19:58:34.326Z,97.20
2022-09-11T20:01:09.266Z,97.30
2022-09-11T20:03:41.797Z,97.30
2022-09-11T20:06:10.277Z,97.30
2022-09-11T20:08:38.138Z,97.20
2022-09-11T20:11:07.352Z,97.20
2022-09-11T20:13:34.942Z,97.30
2022-09-11T20:16:12.359Z,97.60
2022-09-11T20:18:39.210Z,97.70
2022-09-11T20:21:09.576Z,97.70
2022-09-11T20:23:36.556Z,97.80
2022-09-11T20:26:13.689Z,97.80
2022-09-11T20:28:44.224Z,97.70
2022-09-11T20:31:22.770Z,97.90
2022-09-11T20:33:50.121Z,98.00
2022-09-11T20:36:18.230Z,98.10
2022-09-11T20:38:50.423Z,98.10
2022-09-11T20:41:17.199Z,98.20
2022-09-11T20:43:44.098Z,98.20
2022-09-11T20:46:10.995Z,98.20
2022-09-11T20:48:38.207Z,98.20
2022-09-11T20:51:07.951Z,98.20
2022-09-11T20:53:35.743Z,98.20
2022-09-11T20:56:04.799Z,98.30
2022-09-11T20:58:31.707Z,98.40
2022-09-11T21:01:00.525Z,98.50
2022-09-11T21:03:28.415Z,98.50
2022-09-11T21:05:56.317Z,98.50
2022-09-11T21:08:25.500Z,98.60
2022-09-11T21:10:52.593Z,98.60
2022-09-11T21:13:19.640Z,98.60
2022-09-11T21:15:48.325Z,98.60
2022-09-11T21:18:15.504Z,98.70
2022-09-11T21:20:42.280Z,98.70
2022-09-11T21:23:09.000Z,98.70
2022-09-11T21:25:40.255Z,98.80
2022-09-11T21:28:07.064Z,98.90
2022-09-11T21:30:33.762Z,98.80
2022-09-11T21:33:00.509Z,99.00
2022-09-11T21:35:27.292Z,99.10
2022-09-11T21:37:53.999Z,99.00
2022-09-11T21:40:20.905Z,99.10
2022-09-11T21:42:47.747Z,99.10
2022-09-11T21:45:14.683Z,99.10
2022-09-11T21:47:41.461Z,99.20
2022-09-11T21:50:08.644Z,99.20
2022-09-11T21:52:35.315Z,99.20
2022-09-11T21:55:02.104Z,99.20
2022-09-11T21:57:29.757Z,99.20
2022-09-11T21:59:57.073Z,99.30
2022-09-11T22:02:25.210Z,99.30
2022-09-11T22:04:53.243Z,99.40
2022-09-11T22:07:20.410Z,99.40
2022-09-11T22:09:48.387Z,99.40
2022-09-11T22:12:15.789Z,99.40
2022-09-11T22:14:44.396Z,99.50
2022-09-11T22:17:11.909Z,99.60
2022-09-11T22:19:38.657Z,99.60
2022-09-11T22:22:06.723Z,99.60
2022-09-11T22:24:33.481Z,99.70
2022-09-11T22:27:01.867Z,99.90
2022-09-11T22:29:28.615Z,99.60
2022-09-11T22:31:55.526Z,99.70
2022-09-11T22:34:23.374Z,99.70
2022-09-11T22:36:50.264Z,99.70
2022-09-11T22:39:17.003Z,99.70
2022-09-11T22:41:43.668Z,99.70
2022-09-11T22:44:11.529Z,99.70
2022-09-11T22:46:38.308Z,99.70
2022-09-11T22:49:05.100Z,99.70
2022-09-11T22:51:32.767Z,99.70
2022-09-11T22:53:59.502Z,99.80
2022-09-11T22:56:26.376Z,99.70
2022-09-11T22:58:53.744Z,99.70
2022-09-11T23:01:22.835Z,99.70
2022-09-11T23:03:51.025Z,99.70
2022-09-11T23:06:48.034Z,99.90
2022-09-11T23:09:18.829Z,99.90
2022-09-11T23:11:46.303Z,99.80
2022-09-11T23:14:14.852Z,99.80
2022-09-11T23:16:42.681Z,99.80
2022-09-11T23:19:23.298Z,99.90
2022-09-11T23:21:51.629Z,99.90
2022-09-11T23:24:18.349Z,99.90
2022-09-11T23:26:45.686Z,99.90
2022-09-11T23:29:12.838Z,99.90
2022-09-11T23:31:44.864Z,99.90
2022-09-11T23:34:15.557Z,99.90
2022-09-11T23:36:43.043Z,99.90
2022-09-11T23:39:10.213Z,99.90
2022-09-11T23:41:43.199Z,99.90
2022-09-11T23:44:13.721Z,99.90
2022-09-11T23:46:40.552Z,99.90
2022-09-11T23:49:07.289Z,99.90
2022-09-11T23:51:34.836Z,99.90
2022-09-11T23:54:01.476Z,99.90
2022-09-11T23:56:28.402Z,99.90
2022-09-11T23:58:55.058Z,99.90
